sensor_id;sensor_type;location;lat;lon;timestamp;temperature;humidity
18779;DHT22;9518;51.720;14.384;2023-11-19T00:01:50;3.60;99.90
18779;DHT22;9518;51.720;14.384;2023-11-19T00:04:17;3.50;99.90
18779;DHT22;9518;51.720;14.384;2023-11-19T00:06:44;3.50;99.90
18779;DHT22;9518;51.720;14.384;2023-11-19T00:09:11;3.60;99.90
18779;DHT22;9518;51.720;14.384;2023-11-19T00:11:38;3.60;99.90
18779;DHT22;9518;51.720;14.384;2023-11-19T00:14:05;3.60;99.90
18779;DHT22;9518;51.720;14.384;2023-11-19T00:16:34;3.60;99.90
18779;DHT22;9518;51.720;14.384;2023-11-19T00:19:02;3.60;99.90
18779;DHT22;9518;51.720;14.384;2023-11-19T00:21:31;3.70;99.90
18779;DHT22;9518;51.720;14.384;2023-11-19T00:23:58;3.70;99.90
18779;DHT22;9518;51.720;14.384;2023-11-19T00:26:25;3.70;99.90
18779;DHT22;9518;51.720;14.384;2023-11-19T00:28:52;3.70;99.90
18779;DHT22;9518;51.720;14.384;2023-11-19T00:31:21;3.70;99.90
18779;DHT22;9518;51.720;14.384;2023-11-19T00:33:48;3.70;99.90
18779;DHT22;9518;51.720;14.384;2023-11-19T00:36:17;3.70;99.90
18779;DHT22;9518;51.720;14.384;2023-11-19T00:38:44;3.70;99.90
18779;DHT22;9518;51.720;14.384;2023-11-19T00:41:11;3.70;99.90
18779;DHT22;9518;51.720;14.384;2023-11-19T00:43:38;3.70;99.90
18779;DHT22;9518;51.720;14.384;2023-11-19T00:46:07;3.70;99.90
18779;DHT22;9518;51.720;14.384;2023-11-19T00:48:36;3.70;99.90
18779;DHT22;9518;51.720;14.384;2023-11-19T00:51:04;3.80;99.90
18779;DHT22;9518;51.720;14.384;2023-11-19T00:53:32;3.70;99.90
18779;DHT22;9518;51.720;14.384;2023-11-19T00:56:00;3.70;99.90
18779;DHT22;9518;51.720;14.384;2023-11-19T00:58:27;3.80;99.90
18779;DHT22;9518;51.720;14.384;2023-11-19T01:00:55;3.70;99.90
18779;DHT22;9518;51.720;14.384;2023-11-19T01:03:22;3.80;99.90
18779;DHT22;9518;51.720;14.384;2023-11-19T01:05:50;3.80;99.90
18779;DHT22;9518;51.720;14.384;2023-11-19T01:08:18;3.80;99.90
18779;DHT22;9518;51.720;14.384;2023-11-19T01:10:46;3.80;99.90
18779;DHT22;9518;51.720;14.384;2023-11-19T01:13:13;3.80;99.90
18779;DHT22;9518;51.720;14.384;2023-11-19T01:15:41;3.80;99.90
18779;DHT22;9518;51.720;14.384;2023-11-19T01:18:07;3.80;99.90
18779;DHT22;9518;51.720;14.384;2023-11-19T01:20:36;3.90;99.90
18779;DHT22;9518;51.720;14.384;2023-11-19T01:23:03;3.80;99.90
18779;DHT22;9518;51.720;14.384;2023-11-19T01:25:31;3.90;99.90
18779;DHT22;9518;51.720;14.384;2023-11-19T01:27:59;3.90;99.90
18779;DHT22;9518;51.720;14.384;2023-11-19T01:30:28;3.90;99.90
18779;DHT22;9518;51.720;14.384;2023-11-19T01:32:55;3.90;99.90
18779;DHT22;9518;51.720;14.384;2023-11-19T01:35:22;4.00;99.90
18779;DHT22;9518;51.720;14.384;2023-11-19T01:37:50;4.00;99.90
18779;DHT22;9518;51.720;14.384;2023-11-19T01:40:20;4.00;99.90
18779;DHT22;9518;51.720;14.384;2023-11-19T01:42:47;4.00;99.90
18779;DHT22;9518;51.720;14.384;2023-11-19T01:45:22;4.00;99.90
18779;DHT22;9518;51.720;14.384;2023-11-19T01:47:52;3.90;99.90
18779;DHT22;9518;51.720;14.384;2023-11-19T01:50:19;3.90;99.90
18779;DHT22;9518;51.720;14.384;2023-11-19T01:52:46;3.90;99.90
18779;DHT22;9518;51.720;14.384;2023-11-19T01:55:13;3.80;99.90
18779;DHT22;9518;51.720;14.384;2023-11-19T01:57:41;3.80;99.90
18779;DHT22;9518;51.720;14.384;2023-11-19T02:00:09;3.80;99.90
18779;DHT22;9518;51.720;14.384;2023-11-19T02:02:39;3.70;99.90
18779;DHT22;9518;51.720;14.384;2023-11-19T02:05:06;3.80;99.90
18779;DHT22;9518;51.720;14.384;2023-11-19T02:07:33;3.80;99.90
18779;DHT22;9518;51.720;14.384;2023-11-19T02:10:01;3.80;99.90
18779;DHT22;9518;51.720;14.384;2023-11-19T02:12:28;3.80;99.90
18779;DHT22;9518;51.720;14.384;2023-11-19T02:14:57;3.80;99.90
18779;DHT22;9518;51.720;14.384;2023-11-19T02:17:25;3.80;99.90
18779;DHT22;9518;51.720;14.384;2023-11-19T02:19:54;3.80;99.90
18779;DHT22;9518;51.720;14.384;2023-11-19T02:22:21;3.80;99.90
18779;DHT22;9518;51.720;14.384;2023-11-19T02:24:51;3.90;99.90
18779;DHT22;9518;51.720;14.384;2023-11-19T02:27:26;3.90;99.90
18779;DHT22;9518;51.720;14.384;2023-11-19T02:29:56;3.90;99.90
18779;DHT22;9518;51.720;14.384;2023-11-19T02:32:24;4.00;99.90
18779;DHT22;9518;51.720;14.384;2023-11-19T02:34:54;4.00;99.90
18779;DHT22;9518;51.720;14.384;2023-11-19T02:37:21;4.00;99.90
18779;DHT22;9518;51.720;14.384;2023-11-19T02:39:48;4.00;99.90
18779;DHT22;9518;51.720;14.384;2023-11-19T02:42:15;4.00;99.90
18779;DHT22;9518;51.720;14.384;2023-11-19T02:44:45;4.00;99.90
18779;DHT22;9518;51.720;14.384;2023-11-19T02:47:15;4.00;99.90
18779;DHT22;9518;51.720;14.384;2023-11-19T02:49:42;3.90;99.90
18779;DHT22;9518;51.720;14.384;2023-11-19T02:52:10;3.80;99.90
18779;DHT22;9518;51.720;14.384;2023-11-19T02:54:37;3.90;99.90
18779;DHT22;9518;51.720;14.384;2023-11-19T02:57:04;3.80;99.90
18779;DHT22;9518;51.720;14.384;2023-11-19T02:59:38;3.80;99.90
18779;DHT22;9518;51.720;14.384;2023-11-19T03:02:07;3.80;99.90
18779;DHT22;9518;51.720;14.384;2023-11-19T03:04:38;3.90;99.90
18779;DHT22;9518;51.720;14.384;2023-11-19T03:07:06;3.90;99.90
18779;DHT22;9518;51.720;14.384;2023-11-19T03:09:33;3.90;99.90
18779;DHT22;9518;51.720;14.384;2023-11-19T03:12:01;3.90;99.90
18779;DHT22;9518;51.720;14.384;2023-11-19T03:14:28;3.90;99.90
18779;DHT22;9518;51.720;14.384;2023-11-19T03:16:55;4.00;99.90
18779;DHT22;9518;51.720;14.384;2023-11-19T03:19:22;4.00;99.90
18779;DHT22;9518;51.720;14.384;2023-11-19T03:21:51;3.90;99.90
18779;DHT22;9518;51.720;14.384;2023-11-19T03:24:17;4.00;99.90
18779;DHT22;9518;51.720;14.384;2023-11-19T03:26:48;4.00;99.90
18779;DHT22;9518;51.720;14.384;2023-11-19T03:29:16;4.00;99.90
18779;DHT22;9518;51.720;14.384;2023-11-19T03:31:43;4.00;99.90
18779;DHT22;9518;51.720;14.384;2023-11-19T03:34:11;4.00;99.90
18779;DHT22;9518;51.720;14.384;2023-11-19T03:36:38;4.00;99.90
18779;DHT22;9518;51.720;14.384;2023-11-19T03:39:06;4.00;99.90
18779;DHT22;9518;51.720;14.384;2023-11-19T03:41:36;4.10;99.90
18779;DHT22;9518;51.720;14.384;2023-11-19T03:44:04;4.00;99.90
18779;DHT22;9518;51.720;14.384;2023-11-19T03:46:31;4.00;99.90
18779;DHT22;9518;51.720;14.384;2023-11-19T03:48:58;4.00;99.90
18779;DHT22;9518;51.720;14.384;2023-11-19T03:51:25;4.00;99.90
18779;DHT22;9518;51.720;14.384;2023-11-19T03:53:52;4.00;99.90
18779;DHT22;9518;51.720;14.384;2023-11-19T03:56:21;4.00;99.90
18779;DHT22;9518;51.720;14.384;2023-11-19T03:58:48;4.10;99.90
18779;DHT22;9518;51.720;14.384;2023-11-19T04:01:14;4.00;99.90
18779;DHT22;9518;51.720;14.384;2023-11-19T04:03:41;4.10;99.90
18779;DHT22;9518;51.720;14.384;2023-11-19T04:06:08;4.00;99.90
18779;DHT22;9518;51.720;14.384;2023-11-19T04:08:35;4.10;99.90
18779;DHT22;9518;51.720;14.384;2023-11-19T04:11:03;4.10;99.90
18779;DHT22;9518;51.720;14.384;2023-11-19T04:13:32;4.10;99.90
18779;DHT22;9518;51.720;14.384;2023-11-19T04:15:59;4.10;99.90
18779;DHT22;9518;51.720;14.384;2023-11-19T04:18:26;4.10;99.90
18779;DHT22;9518;51.720;14.384;2023-11-19T04:20:53;4.10;99.90
18779;DHT22;9518;51.720;14.384;2023-11-19T04:23:20;4.10;99.90
18779;DHT22;9518;51.720;14.384;2023-11-19T04:25:47;4.10;99.90
18779;DHT22;9518;51.720;14.384;2023-11-19T04:28:15;4.10;99.90
18779;DHT22;9518;51.720;14.384;2023-11-19T04:30:43;4.10;99.90
18779;DHT22;9518;51.720;14.384;2023-11-19T04:33:11;4.10;99.90
18779;DHT22;9518;51.720;14.384;2023-11-19T04:35:38;4.10;99.90
18779;DHT22;9518;51.720;14.384;2023-11-19T04:38:05;4.10;99.90
18779;DHT22;9518;51.720;14.384;2023-11-19T04:40:32;4.20;99.90
18779;DHT22;9518;51.720;14.384;2023-11-19T04:42:59;4.10;99.90
18779;DHT22;9518;51.720;14.384;2023-11-19T04:45:26;4.20;99.90
18779;DHT22;9518;51.720;14.384;2023-11-19T04:47:54;4.10;99.90
18779;DHT22;9518;51.720;14.384;2023-11-19T04:50:21;4.20;99.90
18779;DHT22;9518;51.720;14.384;2023-11-19T04:52:48;4.30;99.90
18779;DHT22;9518;51.720;14.384;2023-11-19T04:55:15;4.20;99.90
18779;DHT22;9518;51.720;14.384;2023-11-19T04:57:43;4.20;99.90
18779;DHT22;9518;51.720;14.384;2023-11-19T05:00:11;4.20;99.90
18779;DHT22;9518;51.720;14.384;2023-11-19T05:02:39;4.10;99.90
18779;DHT22;9518;51.720;14.384;2023-11-19T05:05:07;4.10;99.90
18779;DHT22;9518;51.720;14.384;2023-11-19T05:07:35;4.10;99.90
18779;DHT22;9518;51.720;14.384;2023-11-19T05:10:02;4.00;99.90
18779;DHT22;9518;51.720;14.384;2023-11-19T05:12:29;4.00;99.90
18779;DHT22;9518;51.720;14.384;2023-11-19T05:14:58;4.00;99.90
18779;DHT22;9518;51.720;14.384;2023-11-19T05:17:26;4.00;99.90
18779;DHT22;9518;51.720;14.384;2023-11-19T05:19:52;4.00;99.90
18779;DHT22;9518;51.720;14.384;2023-11-19T05:22:21;4.00;99.90
18779;DHT22;9518;51.720;14.384;2023-11-19T05:24:48;3.90;99.90
18779;DHT22;9518;51.720;14.384;2023-11-19T05:27:15;3.90;99.90
18779;DHT22;9518;51.720;14.384;2023-11-19T05:29:42;3.90;99.90
18779;DHT22;9518;51.720;14.384;2023-11-19T05:32:09;3.90;99.90
18779;DHT22;9518;51.720;14.384;2023-11-19T05:34:36;3.90;99.90
18779;DHT22;9518;51.720;14.384;2023-11-19T05:37:04;3.90;99.90
18779;DHT22;9518;51.720;14.384;2023-11-19T05:39:33;3.90;99.90
18779;DHT22;9518;51.720;14.384;2023-11-19T05:42:00;3.90;99.90
18779;DHT22;9518;51.720;14.384;2023-11-19T05:44:27;3.90;99.90
18779;DHT22;9518;51.720;14.384;2023-11-19T05:46:54;3.90;99.90
18779;DHT22;9518;51.720;14.384;2023-11-19T05:49:21;3.90;99.90
18779;DHT22;9518;51.720;14.384;2023-11-19T05:51:48;3.90;99.90
18779;DHT22;9518;51.720;14.384;2023-11-19T05:54:15;3.90;99.90
18779;DHT22;9518;51.720;14.384;2023-11-19T05:56:47;3.90;99.90
18779;DHT22;9518;51.720;14.384;2023-11-19T05:59:14;3.90;99.90
18779;DHT22;9518;51.720;14.384;2023-11-19T06:01:43;3.90;99.90
18779;DHT22;9518;51.720;14.384;2023-11-19T06:04:10;4.00;99.90
18779;DHT22;9518;51.720;14.384;2023-11-19T06:06:37;4.00;99.90
18779;DHT22;9518;51.720;14.384;2023-11-19T06:09:05;4.00;99.90
18779;DHT22;9518;51.720;14.384;2023-11-19T06:11:33;3.90;99.90
18779;DHT22;9518;51.720;14.384;2023-11-19T06:14:03;4.00;99.90
18779;DHT22;9518;51.720;14.384;2023-11-19T06:16:31;4.00;99.90
18779;DHT22;9518;51.720;14.384;2023-11-19T06:18:58;4.00;99.90
18779;DHT22;9518;51.720;14.384;2023-11-19T06:21:25;4.00;99.90
18779;DHT22;9518;51.720;14.384;2023-11-19T06:23:52;4.00;99.90
18779;DHT22;9518;51.720;14.384;2023-11-19T06:26:19;4.00;99.90
18779;DHT22;9518;51.720;14.384;2023-11-19T06:28:47;4.10;99.90
18779;DHT22;9518;51.720;14.384;2023-11-19T06:31:15;4.10;99.90
18779;DHT22;9518;51.720;14.384;2023-11-19T06:33:42;4.10;99.90
18779;DHT22;9518;51.720;14.384;2023-11-19T06:36:10;4.10;99.90
18779;DHT22;9518;51.720;14.384;2023-11-19T06:38:37;4.10;99.90
18779;DHT22;9518;51.720;14.384;2023-11-19T06:41:07;4.10;99.90
18779;DHT22;9518;51.720;14.384;2023-11-19T06:43:34;4.20;99.90
18779;DHT22;9518;51.720;14.384;2023-11-19T06:46:01;4.10;99.90
18779;DHT22;9518;51.720;14.384;2023-11-19T06:48:32;4.20;99.90
18779;DHT22;9518;51.720;14.384;2023-11-19T06:51:00;4.20;99.90
18779;DHT22;9518;51.720;14.384;2023-11-19T06:53:27;4.20;99.90
18779;DHT22;9518;51.720;14.384;2023-11-19T06:55:55;4.20;99.90
18779;DHT22;9518;51.720;14.384;2023-11-19T06:58:22;4.30;99.90
18779;DHT22;9518;51.720;14.384;2023-11-19T07:00:49;4.20;99.90
18779;DHT22;9518;51.720;14.384;2023-11-19T07:03:16;4.30;99.90
18779;DHT22;9518;51.720;14.384;2023-11-19T07:05:45;4.30;99.90
18779;DHT22;9518;51.720;14.384;2023-11-19T07:08:12;4.30;99.90
18779;DHT22;9518;51.720;14.384;2023-11-19T07:10:39;4.30;99.90
18779;DHT22;9518;51.720;14.384;2023-11-19T07:13:06;4.30;99.90
18779;DHT22;9518;51.720;14.384;2023-11-19T07:15:33;4.30;99.90
18779;DHT22;9518;51.720;14.384;2023-11-19T07:18:00;4.40;99.90
18779;DHT22;9518;51.720;14.384;2023-11-19T07:20:27;4.40;99.90
18779;DHT22;9518;51.720;14.384;2023-11-19T07:22:55;4.40;99.90
18779;DHT22;9518;51.720;14.384;2023-11-19T07:25:22;4.50;99.90
18779;DHT22;9518;51.720;14.384;2023-11-19T07:27:51;4.40;99.90
18779;DHT22;9518;51.720;14.384;2023-11-19T07:30:19;4.50;99.90
18779;DHT22;9518;51.720;14.384;2023-11-19T07:32:46;4.60;99.90
18779;DHT22;9518;51.720;14.384;2023-11-19T07:35:14;4.60;99.90
18779;DHT22;9518;51.720;14.384;2023-11-19T07:37:41;4.60;99.90
18779;DHT22;9518;51.720;14.384;2023-11-19T07:40:11;4.60;99.90
18779;DHT22;9518;51.720;14.384;2023-11-19T07:42:38;4.60;99.90
18779;DHT22;9518;51.720;14.384;2023-11-19T07:45:06;4.60;99.90
18779;DHT22;9518;51.720;14.384;2023-11-19T07:47:33;4.70;99.90
18779;DHT22;9518;51.720;14.384;2023-11-19T07:50:00;4.70;99.90
18779;DHT22;9518;51.720;14.384;2023-11-19T07:52:27;4.70;99.90
18779;DHT22;9518;51.720;14.384;2023-11-19T07:54:54;4.70;99.90
18779;DHT22;9518;51.720;14.384;2023-11-19T07:57:23;4.70;99.90
18779;DHT22;9518;51.720;14.384;2023-11-19T07:59:53;4.70;99.90
18779;DHT22;9518;51.720;14.384;2023-11-19T08:02:20;4.80;99.90
18779;DHT22;9518;51.720;14.384;2023-11-19T08:04:47;4.70;99.90
18779;DHT22;9518;51.720;14.384;2023-11-19T08:07:17;4.70;99.90
18779;DHT22;9518;51.720;14.384;2023-11-19T08:09:44;4.80;99.90
18779;DHT22;9518;51.720;14.384;2023-11-19T08:12:11;4.90;99.90
18779;DHT22;9518;51.720;14.384;2023-11-19T08:14:42;4.90;99.90
18779;DHT22;9518;51.720;14.384;2023-11-19T08:17:09;4.90;99.90
18779;DHT22;9518;51.720;14.384;2023-11-19T08:19:36;4.90;99.90
18779;DHT22;9518;51.720;14.384;2023-11-19T08:22:03;4.90;99.90
18779;DHT22;9518;51.720;14.384;2023-11-19T08:24:30;4.90;99.90
18779;DHT22;9518;51.720;14.384;2023-11-19T08:26:57;5.00;99.90
18779;DHT22;9518;51.720;14.384;2023-11-19T08:29:24;5.00;99.90
18779;DHT22;9518;51.720;14.384;2023-11-19T08:31:54;5.10;99.90
18779;DHT22;9518;51.720;14.384;2023-11-19T08:34:21;5.10;99.90
18779;DHT22;9518;51.720;14.384;2023-11-19T08:36:50;5.10;99.90
18779;DHT22;9518;51.720;14.384;2023-11-19T08:39:18;5.10;99.90
18779;DHT22;9518;51.720;14.384;2023-11-19T08:41:46;5.20;99.90
18779;DHT22;9518;51.720;14.384;2023-11-19T08:44:13;5.20;99.90
18779;DHT22;9518;51.720;14.384;2023-11-19T08:46:47;5.20;99.90
18779;DHT22;9518;51.720;14.384;2023-11-19T08:49:15;5.30;99.90
18779;DHT22;9518;51.720;14.384;2023-11-19T08:51:43;5.30;99.90
18779;DHT22;9518;51.720;14.384;2023-11-19T08:54:12;5.30;99.90
18779;DHT22;9518;51.720;14.384;2023-11-19T08:56:39;5.30;99.90
18779;DHT22;9518;51.720;14.384;2023-11-19T08:59:06;5.30;99.90
18779;DHT22;9518;51.720;14.384;2023-11-19T09:01:34;5.40;99.90
18779;DHT22;9518;51.720;14.384;2023-11-19T09:04:01;5.50;99.90
18779;DHT22;9518;51.720;14.384;2023-11-19T09:06:30;5.60;99.90
18779;DHT22;9518;51.720;14.384;2023-11-19T09:08:57;5.60;99.90
18779;DHT22;9518;51.720;14.384;2023-11-19T09:11:28;5.70;99.90
18779;DHT22;9518;51.720;14.384;2023-11-19T09:13:55;5.80;99.90
18779;DHT22;9518;51.720;14.384;2023-11-19T09:16:22;5.80;99.90
18779;DHT22;9518;51.720;14.384;2023-11-19T09:18:49;5.90;99.90
18779;DHT22;9518;51.720;14.384;2023-11-19T09:21:17;6.00;99.90
18779;DHT22;9518;51.720;14.384;2023-11-19T09:23:45;6.10;99.90
18779;DHT22;9518;51.720;14.384;2023-11-19T09:26:13;6.10;99.90
18779;DHT22;9518;51.720;14.384;2023-11-19T09:28:40;6.20;99.90
18779;DHT22;9518;51.720;14.384;2023-11-19T09:31:13;6.40;99.90
18779;DHT22;9518;51.720;14.384;2023-11-19T09:33:40;6.50;99.90
18779;DHT22;9518;51.720;14.384;2023-11-19T09:36:08;6.60;99.90
18779;DHT22;9518;51.720;14.384;2023-11-19T09:38:36;6.70;99.90
18779;DHT22;9518;51.720;14.384;2023-11-19T09:41:05;6.80;99.90
18779;DHT22;9518;51.720;14.384;2023-11-19T09:43:35;6.80;99.90
18779;DHT22;9518;51.720;14.384;2023-11-19T09:46:05;6.80;99.90
18779;DHT22;9518;51.720;14.384;2023-11-19T09:48:33;6.90;99.90
18779;DHT22;9518;51.720;14.384;2023-11-19T09:51:00;7.00;99.90
18779;DHT22;9518;51.720;14.384;2023-11-19T09:53:28;7.00;99.90
18779;DHT22;9518;51.720;14.384;2023-11-19T09:55:56;7.00;99.90
18779;DHT22;9518;51.720;14.384;2023-11-19T09:58:25;7.10;99.90
18779;DHT22;9518;51.720;14.384;2023-11-19T10:00:52;7.30;99.90
18779;DHT22;9518;51.720;14.384;2023-11-19T10:03:18;7.40;99.90
18779;DHT22;9518;51.720;14.384;2023-11-19T10:05:45;7.50;99.90
18779;DHT22;9518;51.720;14.384;2023-11-19T10:08:12;7.80;99.90
18779;DHT22;9518;51.720;14.384;2023-11-19T10:10:39;8.00;99.90
18779;DHT22;9518;51.720;14.384;2023-11-19T10:13:06;8.40;99.90
18779;DHT22;9518;51.720;14.384;2023-11-19T10:15:37;8.60;99.90
18779;DHT22;9518;51.720;14.384;2023-11-19T10:18:04;8.90;99.90
18779;DHT22;9518;51.720;14.384;2023-11-19T10:20:35;9.00;99.90
18779;DHT22;9518;51.720;14.384;2023-11-19T10:23:03;8.90;99.90
18779;DHT22;9518;51.720;14.384;2023-11-19T10:25:31;9.00;99.90
18779;DHT22;9518;51.720;14.384;2023-11-19T10:28:05;9.10;99.90
18779;DHT22;9518;51.720;14.384;2023-11-19T10:30:32;9.20;99.90
18779;DHT22;9518;51.720;14.384;2023-11-19T10:33:06;9.40;99.90
18779;DHT22;9518;51.720;14.384;2023-11-19T10:35:33;9.60;99.90
18779;DHT22;9518;51.720;14.384;2023-11-19T10:38:01;9.80;99.90
18779;DHT22;9518;51.720;14.384;2023-11-19T10:40:40;9.90;99.90
18779;DHT22;9518;51.720;14.384;2023-11-19T10:43:07;9.90;99.90
18779;DHT22;9518;51.720;14.384;2023-11-19T10:45:35;9.90;99.90
18779;DHT22;9518;51.720;14.384;2023-11-19T10:48:05;9.90;99.90
18779;DHT22;9518;51.720;14.384;2023-11-19T10:50:33;10.00;99.90
18779;DHT22;9518;51.720;14.384;2023-11-19T10:53:02;10.10;99.90
18779;DHT22;9518;51.720;14.384;2023-11-19T10:55:31;10.30;99.90
18779;DHT22;9518;51.720;14.384;2023-11-19T10:58:00;10.50;99.90
18779;DHT22;9518;51.720;14.384;2023-11-19T11:00:33;10.80;99.90
18779;DHT22;9518;51.720;14.384;2023-11-19T11:03:01;10.90;99.90
18779;DHT22;9518;51.720;14.384;2023-11-19T11:05:32;10.80;99.90
18779;DHT22;9518;51.720;14.384;2023-11-19T11:08:00;10.80;99.90
18779;DHT22;9518;51.720;14.384;2023-11-19T11:10:32;10.90;99.90
18779;DHT22;9518;51.720;14.384;2023-11-19T11:13:03;10.90;99.90
18779;DHT22;9518;51.720;14.384;2023-11-19T11:15:31;10.90;99.90
18779;DHT22;9518;51.720;14.384;2023-11-19T11:18:01;11.10;99.90
18779;DHT22;9518;51.720;14.384;2023-11-19T11:20:32;11.30;99.90
18779;DHT22;9518;51.720;14.384;2023-11-19T11:23:25;11.60;99.90
18779;DHT22;9518;51.720;14.384;2023-11-19T11:26:04;12.00;99.90
18779;DHT22;9518;51.720;14.384;2023-11-19T11:28:41;12.10;99.90
18779;DHT22;9518;51.720;14.384;2023-11-19T11:31:20;12.20;99.90
18779;DHT22;9518;51.720;14.384;2023-11-19T11:34:16;12.30;99.90
18779;DHT22;9518;51.720;14.384;2023-11-19T11:36:54;12.30;99.90
18779;DHT22;9518;51.720;14.384;2023-11-19T11:39:27;12.20;99.90
18779;DHT22;9518;51.720;14.384;2023-11-19T11:44:59;12.30;99.90
18779;DHT22;9518;51.720;14.384;2023-11-19T11:50:29;12.30;99.90
18779;DHT22;9518;51.720;14.384;2023-11-19T11:53:17;12.30;99.90
18779;DHT22;9518;51.720;14.384;2023-11-19T11:55:57;12.40;99.90
18779;DHT22;9518;51.720;14.384;2023-11-19T11:58:35;12.50;99.90
18779;DHT22;9518;51.720;14.384;2023-11-19T12:01:04;12.40;99.90
18779;DHT22;9518;51.720;14.384;2023-11-19T12:03:36;12.40;99.90
18779;DHT22;9518;51.720;14.384;2023-11-19T12:06:04;12.30;99.90
18779;DHT22;9518;51.720;14.384;2023-11-19T12:08:34;12.20;99.90
18779;DHT22;9518;51.720;14.384;2023-11-19T12:11:02;12.20;99.90
18779;DHT22;9518;51.720;14.384;2023-11-19T12:13:54;12.20;99.90
18779;DHT22;9518;51.720;14.384;2023-11-19T12:16:24;12.20;99.90
18779;DHT22;9518;51.720;14.384;2023-11-19T12:18:53;12.30;99.90
18779;DHT22;9518;51.720;14.384;2023-11-19T12:21:30;12.30;99.90
18779;DHT22;9518;51.720;14.384;2023-11-19T12:24:00;12.30;99.90
18779;DHT22;9518;51.720;14.384;2023-11-19T12:26:37;12.30;99.90
18779;DHT22;9518;51.720;14.384;2023-11-19T12:29:05;12.40;99.90
18779;DHT22;9518;51.720;14.384;2023-11-19T12:31:33;12.50;99.90
18779;DHT22;9518;51.720;14.384;2023-11-19T12:34:11;12.50;99.90
18779;DHT22;9518;51.720;14.384;2023-11-19T12:36:39;12.50;99.90
18779;DHT22;9518;51.720;14.384;2023-11-19T12:39:09;12.50;99.90
18779;DHT22;9518;51.720;14.384;2023-11-19T12:41:51;12.40;99.90
18779;DHT22;9518;51.720;14.384;2023-11-19T12:44:18;12.40;99.90
18779;DHT22;9518;51.720;14.384;2023-11-19T12:46:45;12.40;99.90
18779;DHT22;9518;51.720;14.384;2023-11-19T12:49:13;12.30;99.90
18779;DHT22;9518;51.720;14.384;2023-11-19T12:51:39;12.10;99.90
18779;DHT22;9518;51.720;14.384;2023-11-19T12:54:06;12.10;99.90
18779;DHT22;9518;51.720;14.384;2023-11-19T12:56:35;12.10;99.90
18779;DHT22;9518;51.720;14.384;2023-11-19T12:59:15;12.00;99.90
18779;DHT22;9518;51.720;14.384;2023-11-19T13:01:42;12.00;99.90
18779;DHT22;9518;51.720;14.384;2023-11-19T13:04:20;12.00;99.90
18779;DHT22;9518;51.720;14.384;2023-11-19T13:06:47;12.10;99.90
18779;DHT22;9518;51.720;14.384;2023-11-19T13:09:23;12.20;99.90
18779;DHT22;9518;51.720;14.384;2023-11-19T13:11:53;12.10;99.90
18779;DHT22;9518;51.720;14.384;2023-11-19T13:14:20;12.10;99.90
18779;DHT22;9518;51.720;14.384;2023-11-19T13:16:47;12.10;99.90
18779;DHT22;9518;51.720;14.384;2023-11-19T13:19:15;12.20;99.90
18779;DHT22;9518;51.720;14.384;2023-11-19T13:21:44;12.20;99.90
18779;DHT22;9518;51.720;14.384;2023-11-19T13:24:12;12.30;99.90
18779;DHT22;9518;51.720;14.384;2023-11-19T13:26:40;12.50;99.90
18779;DHT22;9518;51.720;14.384;2023-11-19T13:29:08;12.60;99.90
18779;DHT22;9518;51.720;14.384;2023-11-19T13:31:36;12.70;99.90
18779;DHT22;9518;51.720;14.384;2023-11-19T13:34:04;12.80;99.90
18779;DHT22;9518;51.720;14.384;2023-11-19T13:36:33;12.80;99.90
18779;DHT22;9518;51.720;14.384;2023-11-19T13:39:00;12.80;99.90
18779;DHT22;9518;51.720;14.384;2023-11-19T13:41:27;12.80;99.90
18779;DHT22;9518;51.720;14.384;2023-11-19T13:43:54;12.80;99.90
18779;DHT22;9518;51.720;14.384;2023-11-19T13:46:22;12.60;99.90
18779;DHT22;9518;51.720;14.384;2023-11-19T13:48:49;12.50;99.90
18779;DHT22;9518;51.720;14.384;2023-11-19T13:51:16;12.30;99.90
18779;DHT22;9518;51.720;14.384;2023-11-19T13:53:43;12.20;99.90
18779;DHT22;9518;51.720;14.384;2023-11-19T13:56:11;12.10;99.90
18779;DHT22;9518;51.720;14.384;2023-11-19T13:58:37;12.30;99.90
18779;DHT22;9518;51.720;14.384;2023-11-19T14:01:06;12.30;99.90
18779;DHT22;9518;51.720;14.384;2023-11-19T14:03:35;12.20;99.90
18779;DHT22;9518;51.720;14.384;2023-11-19T14:06:02;12.10;99.90
18779;DHT22;9518;51.720;14.384;2023-11-19T14:08:29;12.00;99.90
18779;DHT22;9518;51.720;14.384;2023-11-19T14:10:57;11.90;99.90
18779;DHT22;9518;51.720;14.384;2023-11-19T14:13:24;11.80;99.90
18779;DHT22;9518;51.720;14.384;2023-11-19T14:15:51;11.70;99.90
18779;DHT22;9518;51.720;14.384;2023-11-19T14:18:19;11.60;99.90
18779;DHT22;9518;51.720;14.384;2023-11-19T14:20:47;11.60;99.90
18779;DHT22;9518;51.720;14.384;2023-11-19T14:23:14;11.60;99.90
18779;DHT22;9518;51.720;14.384;2023-11-19T14:25:41;11.60;99.90
18779;DHT22;9518;51.720;14.384;2023-11-19T14:28:09;11.60;99.90
18779;DHT22;9518;51.720;14.384;2023-11-19T14:30:36;11.60;99.90
18779;DHT22;9518;51.720;14.384;2023-11-19T14:33:03;11.60;99.90
18779;DHT22;9518;51.720;14.384;2023-11-19T14:35:31;11.60;99.90
18779;DHT22;9518;51.720;14.384;2023-11-19T14:38:00;11.40;99.90
18779;DHT22;9518;51.720;14.384;2023-11-19T14:40:30;11.50;99.90
18779;DHT22;9518;51.720;14.384;2023-11-19T14:42:57;11.40;99.90
18779;DHT22;9518;51.720;14.384;2023-11-19T14:45:24;11.30;99.90
18779;DHT22;9518;51.720;14.384;2023-11-19T14:47:51;11.20;99.90
18779;DHT22;9518;51.720;14.384;2023-11-19T14:50:19;11.10;99.90
18779;DHT22;9518;51.720;14.384;2023-11-19T14:52:46;11.10;99.90
18779;DHT22;9518;51.720;14.384;2023-11-19T14:55:15;11.10;99.90
18779;DHT22;9518;51.720;14.384;2023-11-19T14:57:42;11.10;99.90
18779;DHT22;9518;51.720;14.384;2023-11-19T15:00:10;11.00;99.90
18779;DHT22;9518;51.720;14.384;2023-11-19T15:02:40;11.00;99.90
18779;DHT22;9518;51.720;14.384;2023-11-19T15:05:08;10.90;99.90
18779;DHT22;9518;51.720;14.384;2023-11-19T15:07:36;10.80;99.90
18779;DHT22;9518;51.720;14.384;2023-11-19T15:10:04;10.70;99.90
18779;DHT22;9518;51.720;14.384;2023-11-19T15:12:37;10.70;99.90
18779;DHT22;9518;51.720;14.384;2023-11-19T15:15:07;10.80;99.90
18779;DHT22;9518;51.720;14.384;2023-11-19T15:17:35;10.90;99.90
18779;DHT22;9518;51.720;14.384;2023-11-19T15:20:03;11.00;99.90
18779;DHT22;9518;51.720;14.384;2023-11-19T15:22:30;11.20;99.90
18779;DHT22;9518;51.720;14.384;2023-11-19T15:24:58;11.20;99.90
18779;DHT22;9518;51.720;14.384;2023-11-19T15:27:25;11.20;99.90
18779;DHT22;9518;51.720;14.384;2023-11-19T15:29:54;11.20;99.90
18779;DHT22;9518;51.720;14.384;2023-11-19T15:32:21;11.20;99.90
18779;DHT22;9518;51.720;14.384;2023-11-19T15:34:51;11.10;99.90
18779;DHT22;9518;51.720;14.384;2023-11-19T15:37:18;11.10;99.90
18779;DHT22;9518;51.720;14.384;2023-11-19T15:39:45;11.10;99.90
18779;DHT22;9518;51.720;14.384;2023-11-19T15:42:13;11.00;99.90
18779;DHT22;9518;51.720;14.384;2023-11-19T15:44:40;10.90;99.90
18779;DHT22;9518;51.720;14.384;2023-11-19T15:47:09;10.90;99.90
18779;DHT22;9518;51.720;14.384;2023-11-19T15:49:39;10.90;99.90
18779;DHT22;9518;51.720;14.384;2023-11-19T15:52:09;10.80;99.90
18779;DHT22;9518;51.720;14.384;2023-11-19T15:54:36;10.80;99.90
18779;DHT22;9518;51.720;14.384;2023-11-19T15:57:04;10.80;99.90